createdAt,value
2018-09-26T00:00:22.884Z,7.70
2018-09-26T00:01:03.047Z,7.60
2018-09-26T00:01:40.940Z,7.60
2018-09-26T00:02:19.931Z,7.50
2018-09-26T00:03:04.722Z,7.50
2018-09-26T00:03:48.615Z,7.50
2018-09-26T00:04:28.187Z,7.50
2018-09-26T00:05:02.042Z,7.50
2018-09-26T00:05:36.168Z,7.50
2018-09-26T00:06:10.280Z,7.50
2018-09-26T00:06:45.772Z,7.50
2018-09-26T00:07:20.316Z,7.50
2018-09-26T00:07:54.429Z,7.50
2018-09-26T00:08:28.437Z,7.50
2018-09-26T00:09:03.147Z,7.50
2018-09-26T00:09:37.237Z,7.50
2018-09-26T00:10:11.332Z,7.50
2018-09-26T00:10:47.057Z,7.50
2018-09-26T00:11:22.596Z,7.50
2018-09-26T00:11:56.545Z,7.50
2018-09-26T00:12:30.627Z,7.40
2018-09-26T00:13:04.703Z,7.40
2018-09-26T00:13:38.910Z,7.40
2018-09-26T00:14:13.365Z,7.40
2018-09-26T00:14:47.456Z,7.40
2018-09-26T00:15:22.186Z,7.40
2018-09-26T00:15:56.294Z,7.40
2018-09-26T00:16:30.221Z,7.50
2018-09-26T00:17:04.690Z,7.50
2018-09-26T00:17:38.487Z,7.40
2018-09-26T00:18:12.537Z,7.40
2018-09-26T00:18:46.556Z,7.50
2018-09-26T00:19:20.608Z,7.40
2018-09-26T00:19:54.592Z,7.40
2018-09-26T00:20:28.537Z,7.50
2018-09-26T00:21:02.488Z,7.50
2018-09-26T00:21:36.411Z,7.50
2018-09-26T00:22:10.174Z,7.50
2018-09-26T00:22:44.725Z,7.50
2018-09-26T00:23:19.052Z,7.60
2018-09-26T00:23:52.767Z,7.60
2018-09-26T00:24:27.705Z,7.50
2018-09-26T00:25:01.620Z,7.60
2018-09-26T00:25:35.797Z,7.60
2018-09-26T00:26:09.926Z,7.50
2018-09-26T00:26:44.094Z,7.60
2018-09-26T00:27:18.047Z,7.60
2018-09-26T00:27:52.010Z,7.60
2018-09-26T00:28:25.879Z,7.60
2018-09-26T00:28:59.852Z,7.60
2018-09-26T00:29:33.657Z,7.60
2018-09-26T00:30:07.584Z,7.60
2018-09-26T00:30:41.452Z,7.60
2018-09-26T00:31:15.715Z,7.60
2018-09-26T00:31:49.753Z,7.60
2018-09-26T00:32:23.645Z,7.60
2018-09-26T00:32:57.653Z,7.60
2018-09-26T00:33:31.592Z,7.60
2018-09-26T00:34:05.394Z,7.60
2018-09-26T00:34:39.216Z,7.60
2018-09-26T00:35:13.143Z,7.60
2018-09-26T00:35:47.170Z,7.60
2018-09-26T00:36:21.086Z,7.60
2018-09-26T00:36:54.855Z,7.50
2018-09-26T00:37:28.706Z,7.50
2018-09-26T00:38:02.647Z,7.60
2018-09-26T00:38:36.714Z,7.60
2018-09-26T00:39:10.481Z,7.60
2018-09-26T00:39:44.517Z,7.70
2018-09-26T00:40:18.733Z,7.70
2018-09-26T00:40:52.944Z,7.60
2018-09-26T00:41:26.934Z,7.60
2018-09-26T00:42:00.637Z,7.70
2018-09-26T00:42:34.645Z,7.70
2018-09-26T00:43:08.309Z,7.70
2018-09-26T00:43:42.042Z,7.70
2018-09-26T00:44:15.948Z,7.70
2018-09-26T00:44:50.037Z,7.70
2018-09-26T00:45:23.944Z,7.80
2018-09-26T00:45:57.864Z,7.80
2018-09-26T00:46:31.732Z,7.80
2018-09-26T00:47:05.833Z,7.80
2018-09-26T00:47:39.704Z,7.80
2018-09-26T00:48:13.481Z,7.80
2018-09-26T00:48:47.423Z,7.80
2018-09-26T00:49:21.423Z,7.80
2018-09-26T00:49:55.338Z,7.80
2018-09-26T00:50:29.184Z,7.80
2018-09-26T00:51:02.995Z,7.90
2018-09-26T00:51:37.030Z,7.90
2018-09-26T00:52:10.872Z,8.00
2018-09-26T00:52:44.877Z,8.00
2018-09-26T00:53:18.824Z,8.00
2018-09-26T00:53:52.980Z,8.10
2018-09-26T00:54:26.949Z,8.10
2018-09-26T00:55:00.770Z,8.10
2018-09-26T00:55:34.696Z,8.10
2018-09-26T00:56:08.670Z,8.20
2018-09-26T00:56:42.458Z,8.20
2018-09-26T00:57:16.474Z,8.20
2018-09-26T00:57:50.618Z,8.20
2018-09-26T00:58:24.383Z,8.20
2018-09-26T00:58:58.467Z,8.20
2018-09-26T00:59:32.140Z,8.30
2018-09-26T01:00:06.086Z,8.30
2018-09-26T01:00:40.015Z,8.40
2018-09-26T01:01:13.955Z,8.40
2018-09-26T01:01:47.872Z,8.40
2018-09-26T01:02:22.056Z,8.40
2018-09-26T01:02:55.868Z,8.40
2018-09-26T01:03:30.093Z,8.40
2018-09-26T01:04:04.313Z,8.30
2018-09-26T01:04:38.275Z,8.30
2018-09-26T01:05:12.376Z,8.30
2018-09-26T01:05:46.218Z,8.40
2018-09-26T01:06:21.392Z,8.40
2018-09-26T01:06:55.316Z,8.40
2018-09-26T01:07:29.387Z,8.40
2018-09-26T01:08:03.180Z,8.40
2018-09-26T01:08:37.894Z,8.40
2018-09-26T01:09:11.820Z,8.40
2018-09-26T01:09:45.699Z,8.40
2018-09-26T01:10:19.548Z,8.40
2018-09-26T01:10:53.956Z,8.40
2018-09-26T01:11:27.921Z,8.50
2018-09-26T01:12:01.755Z,8.50
2018-09-26T01:12:36.151Z,8.50
2018-09-26T01:13:10.187Z,8.50
2018-09-26T01:13:44.038Z,8.50
2018-09-26T01:14:17.988Z,8.50
2018-09-26T01:14:51.960Z,8.50
2018-09-26T01:15:25.780Z,8.50
2018-09-26T01:15:59.650Z,8.50
2018-09-26T01:16:33.534Z,8.50
2018-09-26T01:17:07.434Z,8.50
2018-09-26T01:17:41.526Z,8.60
2018-09-26T01:18:15.277Z,8.50
2018-09-26T01:18:49.267Z,8.60
2018-09-26T01:19:23.667Z,8.60
2018-09-26T01:19:57.667Z,8.50
2018-09-26T01:20:34.555Z,8.50
2018-09-26T01:21:08.311Z,8.60
2018-09-26T01:21:42.304Z,8.60
2018-09-26T01:22:16.214Z,8.60
2018-09-26T01:22:49.961Z,8.60
2018-09-26T01:23:24.142Z,8.60
2018-09-26T01:23:57.904Z,8.60
2018-09-26T01:24:31.817Z,8.60
2018-09-26T01:25:05.997Z,8.60
2018-09-26T01:25:40.645Z,8.60
2018-09-26T01:26:14.456Z,8.60
2018-09-26T01:26:48.519Z,8.60
2018-09-26T01:27:22.496Z,8.60
2018-09-26T01:27:56.461Z,8.60
2018-09-26T01:28:30.480Z,8.60
2018-09-26T01:29:04.425Z,8.60
2018-09-26T01:29:38.133Z,8.60
2018-09-26T01:30:11.947Z,8.60
2018-09-26T01:30:45.881Z,8.60
2018-09-26T01:31:19.774Z,8.60
2018-09-26T01:31:53.655Z,8.60
2018-09-26T01:32:27.775Z,8.70
2018-09-26T01:33:02.339Z,8.70
2018-09-26T01:33:36.136Z,8.70
2018-09-26T01:34:09.956Z,8.70
2018-09-26T01:34:46.144Z,8.70
2018-09-26T01:35:19.844Z,8.70
2018-09-26T01:35:53.755Z,8.70
2018-09-26T01:36:27.951Z,8.70
2018-09-26T01:37:01.848Z,8.70
2018-09-26T01:37:35.608Z,8.70
2018-09-26T01:38:09.641Z,8.60
2018-09-26T01:38:43.515Z,8.70
2018-09-26T01:39:17.339Z,8.70
2018-09-26T01:39:51.138Z,8.70
2018-09-26T01:40:24.764Z,8.70
2018-09-26T01:40:58.724Z,8.70
2018-09-26T01:41:32.827Z,8.70
2018-09-26T01:42:06.597Z,8.70
2018-09-26T01:42:40.845Z,8.70
2018-09-26T01:43:15.012Z,8.70
2018-09-26T01:43:48.826Z,8.70
2018-09-26T01:44:22.918Z,8.80
2018-09-26T01:44:57.252Z,8.70
2018-09-26T01:45:31.191Z,8.70
2018-09-26T01:46:05.513Z,8.70
2018-09-26T01:46:39.404Z,8.70
2018-09-26T01:47:13.280Z,8.70
2018-09-26T01:47:47.116Z,8.70
2018-09-26T01:48:21.078Z,8.70
2018-09-26T01:48:54.951Z,8.70
2018-09-26T01:49:28.771Z,8.70
2018-09-26T01:50:02.674Z,8.70
2018-09-26T01:50:36.429Z,8.70
2018-09-26T01:51:10.395Z,8.70
2018-09-26T01:51:47.371Z,8.70
2018-09-26T01:52:21.196Z,8.60
2018-09-26T01:52:55.138Z,8.60
2018-09-26T01:53:29.111Z,8.70
2018-09-26T01:54:03.114Z,8.70
2018-09-26T01:54:36.963Z,8.70
2018-09-26T01:55:11.012Z,8.60
2018-09-26T01:55:45.018Z,8.60
2018-09-26T01:56:18.800Z,8.60
2018-09-26T01:56:52.660Z,8.60
2018-09-26T01:57:26.423Z,8.50
2018-09-26T01:58:00.303Z,8.50
2018-09-26T01:58:34.323Z,8.40
2018-09-26T01:59:08.479Z,8.40
2018-09-26T01:59:42.465Z,8.40
2018-09-26T02:00:16.485Z,8.40
2018-09-26T02:00:50.312Z,8.40
2018-09-26T02:01:24.160Z,8.40
2018-09-26T02:01:58.052Z,8.30
2018-09-26T02:02:31.831Z,8.30
2018-09-26T02:03:06.278Z,8.30
2018-09-26T02:03:40.136Z,8.40
2018-09-26T02:04:14.027Z,8.40
2018-09-26T02:04:48.004Z,8.40
2018-09-26T02:05:21.813Z,8.50
2018-09-26T02:05:55.636Z,8.40
2018-09-26T02:06:29.631Z,8.40
2018-09-26T02:07:03.532Z,8.40
2018-09-26T02:07:39.093Z,8.50
2018-09-26T02:08:12.876Z,8.40
2018-09-26T02:08:47.136Z,8.40
2018-09-26T02:09:20.765Z,8.40
2018-09-26T02:09:54.416Z,8.50
2018-09-26T02:10:28.368Z,8.50
2018-09-26T02:11:02.824Z,8.60
2018-09-26T02:11:37.260Z,8.50
2018-09-26T02:12:11.092Z,8.50
2018-09-26T02:12:45.117Z,8.50
2018-09-26T02:13:19.072Z,8.50
2018-09-26T02:13:52.793Z,8.50
2018-09-26T02:14:26.418Z,8.50
2018-09-26T02:15:00.023Z,8.50
2018-09-26T02:15:34.213Z,8.50
2018-09-26T02:16:08.399Z,8.50
2018-09-26T02:16:42.189Z,8.50
2018-09-26T02:17:16.068Z,8.50
2018-09-26T02:17:49.875Z,8.50
2018-09-26T02:18:23.565Z,8.50
2018-09-26T02:18:57.519Z,8.50
2018-09-26T02:19:31.586Z,8.50
2018-09-26T02:20:05.439Z,8.50
2018-09-26T02:20:39.326Z,8.50
2018-09-26T02:21:13.324Z,8.50
2018-09-26T02:21:47.069Z,8.50
2018-09-26T02:22:20.918Z,8.50
2018-09-26T02:22:54.572Z,8.50
2018-09-26T02:23:28.257Z,8.50
2018-09-26T02:24:02.241Z,8.40
2018-09-26T02:24:36.366Z,8.50
2018-09-26T02:25:10.143Z,8.40
2018-09-26T02:25:43.926Z,8.40
2018-09-26T02:26:17.588Z,8.40
2018-09-26T02:26:51.741Z,8.50
2018-09-26T02:27:25.664Z,8.40
2018-09-26T02:27:59.443Z,8.50
2018-09-26T02:28:33.964Z,8.50
2018-09-26T02:29:08.263Z,8.50
2018-09-26T02:29:42.093Z,8.50
2018-09-26T02:30:15.921Z,8.50
2018-09-26T02:30:49.763Z,8.50
2018-09-26T02:31:23.660Z,8.50
2018-09-26T02:31:57.526Z,8.50
2018-09-26T02:32:31.320Z,8.50
2018-09-26T02:33:05.971Z,8.50
2018-09-26T02:33:39.647Z,8.50
2018-09-26T02:35:03.321Z,8.50
2018-09-26T02:35:37.479Z,8.50
2018-09-26T02:36:12.381Z,8.50
2018-09-26T02:36:46.223Z,8.50
2018-09-26T02:37:20.088Z,8.50
2018-09-26T02:37:53.981Z,8.50
2018-09-26T02:38:27.676Z,8.40
2018-09-26T02:39:01.322Z,8.40
2018-09-26T02:39:36.579Z,8.40
2018-09-26T02:40:10.330Z,8.40
2018-09-26T02:40:44.301Z,8.40
2018-09-26T02:41:18.614Z,8.50
2018-09-26T02:41:52.253Z,8.40
2018-09-26T02:42:26.068Z,8.40
2018-09-26T02:42:59.988Z,8.50
2018-09-26T02:43:33.779Z,8.50
2018-09-26T02:44:08.490Z,8.50
2018-09-26T02:44:42.666Z,8.50
2018-09-26T02:45:16.452Z,8.50
2018-09-26T02:45:50.355Z,8.50
2018-09-26T02:46:24.240Z,8.50
2018-09-26T02:46:58.036Z,8.50
2018-09-26T02:47:31.964Z,8.50
2018-09-26T02:48:05.768Z,8.50
2018-09-26T02:48:45.399Z,8.50
2018-09-26T02:49:19.121Z,8.50
2018-09-26T02:49:53.040Z,8.50
2018-09-26T02:50:26.761Z,8.50
2018-09-26T02:51:00.476Z,8.50
2018-09-26T02:51:36.957Z,8.50
2018-09-26T02:52:11.012Z,8.50
2018-09-26T02:52:44.873Z,8.50
2018-09-26T02:53:18.663Z,8.50
2018-09-26T02:53:52.345Z,8.50
2018-09-26T02:54:26.053Z,8.50
2018-09-26T02:55:00.013Z,8.50
2018-09-26T02:55:33.974Z,8.50
2018-09-26T02:56:07.888Z,8.50
2018-09-26T02:56:42.588Z,8.50
2018-09-26T02:57:16.656Z,8.50
2018-09-26T02:57:50.328Z,8.50
2018-09-26T02:58:24.219Z,8.50
2018-09-26T02:58:58.162Z,8.50
2018-09-26T02:59:31.939Z,8.50
2018-09-26T03:00:05.912Z,8.50
2018-09-26T03:00:40.025Z,8.50
2018-09-26T03:01:14.260Z,8.50
2018-09-26T03:01:48.130Z,8.50
2018-09-26T03:02:21.996Z,8.50
2018-09-26T03:02:55.808Z,8.50
2018-09-26T03:03:29.882Z,8.50
2018-09-26T03:04:03.668Z,8.50
2018-09-26T03:04:37.562Z,8.50
2018-09-26T03:05:11.816Z,8.50
2018-09-26T03:05:45.678Z,8.50
2018-09-26T03:06:19.568Z,8.50
2018-09-26T03:06:53.478Z,8.50
2018-09-26T03:07:27.245Z,8.50
2018-09-26T03:08:01.111Z,8.50
2018-09-26T03:08:34.988Z,8.50
2018-09-26T03:09:09.981Z,8.50
2018-09-26T03:09:45.181Z,8.40
2018-09-26T03:10:18.995Z,8.50
2018-09-26T03:10:52.941Z,8.40
2018-09-26T03:11:26.781Z,8.40
2018-09-26T03:12:00.612Z,8.40
2018-09-26T03:12:34.452Z,8.40
2018-09-26T03:13:08.132Z,8.40
2018-09-26T03:13:42.059Z,8.40
2018-09-26T03:14:16.018Z,8.50
2018-09-26T03:14:50.033Z,8.40
2018-09-26T03:15:24.027Z,8.40
2018-09-26T03:15:57.796Z,8.40
2018-09-26T03:16:31.605Z,8.40
2018-09-26T03:17:05.916Z,8.40
2018-09-26T03:17:39.860Z,8.30
2018-09-26T03:18:14.011Z,8.30
2018-09-26T03:18:48.135Z,8.30
2018-09-26T03:19:22.409Z,8.40
2018-09-26T03:19:56.347Z,8.30
2018-09-26T03:20:30.429Z,8.30
2018-09-26T03:21:04.138Z,8.30
2018-09-26T03:21:38.063Z,8.30
2018-09-26T03:22:12.011Z,8.30
2018-09-26T03:22:46.545Z,8.30
2018-09-26T03:23:20.618Z,8.30
2018-09-26T03:23:54.418Z,8.30
2018-09-26T03:24:28.300Z,8.30
2018-09-26T03:25:02.301Z,8.30
2018-09-26T03:25:36.292Z,8.30
2018-09-26T03:26:10.102Z,8.30
2018-09-26T03:26:44.225Z,8.30
2018-09-26T03:27:18.244Z,8.30
2018-09-26T03:27:52.349Z,8.20
2018-09-26T03:28:26.267Z,8.20
2018-09-26T03:29:00.265Z,8.30
2018-09-26T03:29:34.083Z,8.30
2018-09-26T03:30:07.929Z,8.30
2018-09-26T03:30:41.804Z,8.30
2018-09-26T03:31:15.946Z,8.30
2018-09-26T03:31:49.857Z,8.30
2018-09-26T03:32:23.659Z,8.30
2018-09-26T03:32:57.521Z,8.30
2018-09-26T03:33:31.524Z,8.30
2018-09-26T03:34:05.721Z,8.30
2018-09-26T03:34:39.403Z,8.30
2018-09-26T03:35:13.721Z,8.30
2018-09-26T03:35:47.535Z,8.30
2018-09-26T03:36:21.539Z,8.30
2018-09-26T03:36:55.260Z,8.30
2018-09-26T03:37:29.256Z,8.30
2018-09-26T03:38:03.292Z,8.30
2018-09-26T03:38:37.174Z,8.30
2018-09-26T03:39:10.859Z,8.30
2018-09-26T03:39:45.977Z,8.40
2018-09-26T03:40:19.896Z,8.30
2018-09-26T03:40:53.813Z,8.40
2018-09-26T03:41:27.904Z,8.30
2018-09-26T03:42:01.644Z,8.30
2018-09-26T03:42:35.640Z,8.30
2018-09-26T03:43:09.762Z,8.30
2018-09-26T03:43:43.677Z,8.30
2018-09-26T03:44:17.785Z,8.30
2018-09-26T03:44:51.911Z,8.30
2018-09-26T03:45:25.950Z,8.30
2018-09-26T03:45:59.860Z,8.30
2018-09-26T03:46:33.881Z,8.30
2018-09-26T03:47:07.772Z,8.30
2018-09-26T03:47:41.994Z,8.30
2018-09-26T03:48:16.023Z,8.30
2018-09-26T03:48:55.038Z,8.40
2018-09-26T03:49:35.733Z,8.40
2018-09-26T03:50:10.455Z,8.40
2018-09-26T03:50:44.397Z,8.40
2018-09-26T03:51:18.498Z,8.40
2018-09-26T03:51:52.579Z,8.40
2018-09-26T03:52:26.412Z,8.40
2018-09-26T03:53:00.131Z,8.30
2018-09-26T03:53:34.245Z,8.40
2018-09-26T03:54:08.214Z,8.40
2018-09-26T03:54:42.154Z,8.30
2018-09-26T03:55:16.111Z,8.40
2018-09-26T03:55:50.449Z,8.40
2018-09-26T03:56:24.290Z,8.40
2018-09-26T03:56:58.176Z,8.40
2018-09-26T03:57:32.089Z,8.40
2018-09-26T03:58:12.637Z,8.40
2018-09-26T03:58:46.628Z,8.40
2018-09-26T03:59:20.576Z,8.40
2018-09-26T03:59:54.831Z,8.40
2018-09-26T04:00:28.534Z,8.40
2018-09-26T04:01:02.524Z,8.40
2018-09-26T04:01:36.230Z,8.30
2018-09-26T04:02:09.964Z,8.40
2018-09-26T04:02:43.869Z,8.40
2018-09-26T04:03:17.802Z,8.40
2018-09-26T04:03:51.876Z,8.40
2018-09-26T04:04:25.994Z,8.40
2018-09-26T04:05:00.141Z,8.40
2018-09-26T04:05:33.896Z,8.40
2018-09-26T04:06:07.774Z,8.40
2018-09-26T04:06:41.589Z,8.40
2018-09-26T04:07:15.605Z,8.40
2018-09-26T04:07:49.580Z,8.40
2018-09-26T04:08:23.583Z,8.40
2018-09-26T04:08:57.433Z,8.40
2018-09-26T04:09:31.282Z,8.40
2018-09-26T04:10:05.658Z,8.40
2018-09-26T04:10:42.575Z,8.40
2018-09-26T04:11:16.465Z,8.40
2018-09-26T04:11:50.536Z,8.40
2018-09-26T04:12:24.509Z,8.40
2018-09-26T04:12:58.469Z,8.40
2018-09-26T04:13:32.077Z,8.40
2018-09-26T04:14:06.061Z,8.40
2018-09-26T04:14:40.058Z,8.40
2018-09-26T04:15:13.913Z,8.30
2018-09-26T04:15:52.747Z,8.40
2018-09-26T04:16:26.775Z,8.30
2018-09-26T04:17:00.620Z,8.30
2018-09-26T04:17:34.519Z,8.30
2018-09-26T04:18:08.238Z,8.30
2018-09-26T04:18:42.153Z,8.30
2018-09-26T04:19:16.073Z,8.30
2018-09-26T04:19:49.896Z,8.30
2018-09-26T04:20:24.144Z,8.30
2018-09-26T04:20:57.865Z,8.30
2018-09-26T04:21:31.667Z,8.30
2018-09-26T04:22:05.615Z,8.40
2018-09-26T04:22:39.467Z,8.30
2018-09-26T04:23:13.726Z,8.30
2018-09-26T04:23:47.536Z,8.30
2018-09-26T04:24:21.660Z,8.30
2018-09-26T04:24:56.127Z,8.30
2018-09-26T04:25:29.916Z,8.30
2018-09-26T04:26:03.794Z,8.30
2018-09-26T04:26:37.897Z,8.30
2018-09-26T04:27:11.688Z,8.30
2018-09-26T04:27:45.340Z,8.40
2018-09-26T04:28:19.130Z,8.40
2018-09-26T04:28:53.437Z,8.30
2018-09-26T04:29:27.476Z,8.30
2018-09-26T04:30:01.368Z,8.30
2018-09-26T04:30:35.448Z,8.30
2018-09-26T04:31:09.138Z,8.30
2018-09-26T04:31:43.043Z,8.30
2018-09-26T04:32:16.991Z,8.30
2018-09-26T04:32:50.774Z,8.30
2018-09-26T04:33:24.942Z,8.30
2018-09-26T04:33:58.734Z,8.30
2018-09-26T04:34:32.632Z,8.40
2018-09-26T04:35:06.463Z,8.40
2018-09-26T04:35:40.496Z,8.40
2018-09-26T04:36:14.349Z,8.40
2018-09-26T04:36:48.211Z,8.40
2018-09-26T04:37:22.192Z,8.40
2018-09-26T04:37:56.384Z,8.40
2018-09-26T04:38:31.337Z,8.40
2018-09-26T04:39:08.244Z,8.40
2018-09-26T04:39:42.110Z,8.40
2018-09-26T04:40:16.114Z,8.40
2018-09-26T04:40:49.996Z,8.40
2018-09-26T04:41:23.886Z,8.40
2018-09-26T04:41:58.714Z,8.40
2018-09-26T04:42:32.616Z,8.40
2018-09-26T04:43:06.482Z,8.40
2018-09-26T04:43:40.576Z,8.40
2018-09-26T04:44:14.435Z,8.40
2018-09-26T04:44:48.225Z,8.40
2018-09-26T04:45:22.120Z,8.40
2018-09-26T04:45:56.099Z,8.40
2018-09-26T04:46:30.254Z,8.40
2018-09-26T04:47:04.272Z,8.40
2018-09-26T04:47:38.455Z,8.40
2018-09-26T04:48:12.301Z,8.40
2018-09-26T04:48:52.981Z,8.40
2018-09-26T04:49:27.063Z,8.40
2018-09-26T04:50:01.413Z,8.40
2018-09-26T04:50:35.545Z,8.40
2018-09-26T04:51:09.506Z,8.40
2018-09-26T04:51:43.496Z,8.40
2018-09-26T04:52:17.308Z,8.40
2018-09-26T04:52:51.159Z,8.40
2018-09-26T04:53:24.979Z,8.40
2018-09-26T04:53:59.564Z,8.40
2018-09-26T04:54:33.401Z,8.40
2018-09-26T04:55:07.676Z,8.40
2018-09-26T04:55:41.906Z,8.40
2018-09-26T04:56:15.937Z,8.40
2018-09-26T04:56:49.749Z,8.40
2018-09-26T04:57:23.798Z,8.40
2018-09-26T04:57:58.205Z,8.40
2018-09-26T04:58:32.218Z,8.40
2018-09-26T04:59:06.539Z,8.40
2018-09-26T04:59:40.527Z,8.40
2018-09-26T05:00:14.676Z,8.50
2018-09-26T05:00:48.483Z,8.50
2018-09-26T05:01:22.621Z,8.50
2018-09-26T05:01:56.678Z,8.50
2018-09-26T05:02:30.733Z,8.40
2018-09-26T05:03:04.479Z,8.50
2018-09-26T05:03:38.482Z,8.50
2018-09-26T05:04:12.359Z,8.50
2018-09-26T05:04:46.092Z,8.50
2018-09-26T05:05:19.953Z,8.50
2018-09-26T05:05:53.888Z,8.50
2018-09-26T05:06:27.767Z,8.60
2018-09-26T05:07:01.720Z,8.50
2018-09-26T05:07:36.808Z,8.50
2018-09-26T05:08:11.042Z,8.50
2018-09-26T05:08:44.581Z,8.50
2018-09-26T05:09:18.519Z,8.50
2018-09-26T05:09:52.268Z,8.50
2018-09-26T05:10:26.028Z,8.50
2018-09-26T05:11:05.283Z,8.60
2018-09-26T05:11:39.369Z,8.60
2018-09-26T05:12:13.095Z,8.60
2018-09-26T05:12:47.028Z,8.60
2018-09-26T05:13:20.966Z,8.60
2018-09-26T05:13:54.760Z,8.50
2018-09-26T05:14:28.535Z,8.60
2018-09-26T05:15:02.356Z,8.60
2018-09-26T05:15:36.683Z,8.60
2018-09-26T05:16:10.433Z,8.60
2018-09-26T05:16:44.348Z,8.60
2018-09-26T05:17:18.248Z,8.60
2018-09-26T05:17:52.062Z,8.50
2018-09-26T05:18:26.161Z,8.60
2018-09-26T05:19:00.530Z,8.50
2018-09-26T05:19:34.380Z,8.50
2018-09-26T05:20:08.252Z,8.50
2018-09-26T05:20:42.302Z,8.50
2018-09-26T05:21:16.168Z,8.50
2018-09-26T05:21:49.880Z,8.50
2018-09-26T05:22:23.874Z,8.50
2018-09-26T05:22:57.691Z,8.60
2018-09-26T05:23:31.911Z,8.50
2018-09-26T05:24:05.972Z,8.50
2018-09-26T05:24:39.940Z,8.50
2018-09-26T05:25:14.400Z,8.50
2018-09-26T05:25:48.251Z,8.50
2018-09-26T05:26:22.093Z,8.50
2018-09-26T05:26:55.926Z,8.50
2018-09-26T05:27:29.600Z,8.50
2018-09-26T05:28:03.866Z,8.50
2018-09-26T05:28:38.482Z,8.50
2018-09-26T05:29:12.459Z,8.50
2018-09-26T05:29:46.626Z,8.50
2018-09-26T05:30:20.542Z,8.50
2018-09-26T05:30:54.614Z,8.50
2018-09-26T05:31:28.424Z,8.50
2018-09-26T05:32:02.336Z,8.50
2018-09-26T05:32:36.552Z,8.50
2018-09-26T05:33:10.999Z,8.50
2018-09-26T05:33:45.241Z,8.50
2018-09-26T05:34:19.154Z,8.50
2018-09-26T05:34:52.835Z,8.50
2018-09-26T05:35:26.569Z,8.50
2018-09-26T05:36:00.510Z,8.50
2018-09-26T05:36:35.025Z,8.50
2018-09-26T05:37:09.136Z,8.50
2018-09-26T05:37:43.960Z,8.50
2018-09-26T05:38:18.927Z,8.50
2018-09-26T05:38:52.882Z,8.50
2018-09-26T05:39:26.838Z,8.50
2018-09-26T05:40:00.550Z,8.50
2018-09-26T05:40:34.648Z,8.50
2018-09-26T05:41:08.657Z,8.50
2018-09-26T05:41:42.755Z,8.60
2018-09-26T05:42:16.692Z,8.60
2018-09-26T05:42:50.487Z,8.50
2018-09-26T05:43:24.375Z,8.60
2018-09-26T05:43:58.183Z,8.60
2018-09-26T05:44:32.217Z,8.60
2018-09-26T05:45:06.387Z,8.60
2018-09-26T05:45:40.788Z,8.60
2018-09-26T05:46:15.103Z,8.60
2018-09-26T05:46:48.952Z,8.60
2018-09-26T05:47:22.733Z,8.60
2018-09-26T05:47:56.532Z,8.60
2018-09-26T05:48:30.421Z,8.60
2018-09-26T05:49:04.328Z,8.60
2018-09-26T05:49:38.260Z,8.60
2018-09-26T05:50:12.507Z,8.60
2018-09-26T05:50:46.506Z,8.70
2018-09-26T05:51:20.254Z,8.70
2018-09-26T05:51:54.108Z,8.60
2018-09-26T05:52:28.053Z,8.70
2018-09-26T05:53:02.002Z,8.70
2018-09-26T05:53:36.512Z,8.70
2018-09-26T05:54:10.678Z,8.70
2018-09-26T05:54:44.693Z,8.70
2018-09-26T05:55:18.485Z,8.70
2018-09-26T05:55:52.368Z,8.70
2018-09-26T05:56:26.185Z,8.70
2018-09-26T05:56:59.872Z,8.70
2018-09-26T05:57:33.745Z,8.80
2018-09-26T05:58:07.665Z,8.70
2018-09-26T05:58:41.809Z,8.80
2018-09-26T05:59:15.786Z,8.80
2018-09-26T05:59:49.700Z,8.80
2018-09-26T06:00:23.691Z,8.80
2018-09-26T06:00:57.505Z,8.80
2018-09-26T06:01:31.439Z,8.80
2018-09-26T06:02:05.326Z,8.80
2018-09-26T06:02:39.404Z,8.80
2018-09-26T06:03:13.472Z,8.80
2018-09-26T06:03:47.431Z,8.90
2018-09-26T06:04:21.273Z,8.90
2018-09-26T06:04:54.913Z,8.90
2018-09-26T06:05:28.903Z,8.90
2018-09-26T06:06:02.617Z,8.90
2018-09-26T06:06:36.447Z,8.90
2018-09-26T06:07:10.523Z,8.90
2018-09-26T06:07:45.579Z,8.90
2018-09-26T06:08:19.474Z,8.90
2018-09-26T06:08:53.469Z,9.00
2018-09-26T06:09:27.376Z,9.00
2018-09-26T06:10:01.207Z,9.00
2018-09-26T06:10:35.026Z,9.00
2018-09-26T06:11:08.824Z,9.00
2018-09-26T06:11:43.473Z,9.00
2018-09-26T06:12:17.551Z,9.00
2018-09-26T06:12:51.502Z,9.00
2018-09-26T06:13:25.313Z,9.10
2018-09-26T06:13:59.115Z,9.00
2018-09-26T06:14:33.130Z,9.10
2018-09-26T06:15:07.131Z,9.10
2018-09-26T06:15:41.195Z,9.10
2018-09-26T06:16:15.265Z,9.10
2018-09-26T06:16:49.409Z,9.10
2018-09-26T06:17:23.361Z,9.10
2018-09-26T06:17:57.210Z,9.10
2018-09-26T06:18:30.937Z,9.10
2018-09-26T06:19:04.796Z,9.10
2018-09-26T06:19:38.579Z,9.10
2018-09-26T06:20:12.648Z,9.10
2018-09-26T06:20:46.696Z,9.20
2018-09-26T06:21:20.670Z,9.10
2018-09-26T06:21:54.404Z,9.20
2018-09-26T06:22:28.409Z,9.20
2018-09-26T06:23:02.092Z,9.20
2018-09-26T06:23:36.082Z,9.20
2018-09-26T06:24:09.967Z,9.20
2018-09-26T06:24:45.314Z,9.20
2018-09-26T06:25:19.498Z,9.20
2018-09-26T06:25:53.280Z,9.20
2018-09-26T06:26:27.047Z,9.20
2018-09-26T06:27:00.767Z,9.30
2018-09-26T06:27:34.417Z,9.20
2018-09-26T06:28:08.423Z,9.30
2018-09-26T06:28:42.154Z,9.30
2018-09-26T06:29:16.130Z,9.30
2018-09-26T06:29:50.456Z,9.30
2018-09-26T06:30:24.315Z,9.30
2018-09-26T06:30:58.176Z,9.30
2018-09-26T06:31:31.990Z,9.40
2018-09-26T06:32:05.946Z,9.40
2018-09-26T06:32:39.760Z,9.40
2018-09-26T06:33:13.783Z,9.40
2018-09-26T06:33:48.024Z,9.40
2018-09-26T06:34:21.817Z,9.50
2018-09-26T06:34:55.918Z,9.40
2018-09-26T06:35:29.876Z,9.50
2018-09-26T06:36:03.947Z,9.50
2018-09-26T06:36:37.840Z,9.50
2018-09-26T06:37:11.775Z,9.50
2018-09-26T06:37:46.090Z,9.50
2018-09-26T06:38:20.434Z,9.50
2018-09-26T06:38:54.304Z,9.50
2018-09-26T06:39:28.152Z,9.50
2018-09-26T06:40:01.931Z,9.50
2018-09-26T06:40:35.800Z,9.60
2018-09-26T06:41:09.512Z,9.60
2018-09-26T06:41:43.796Z,9.60
2018-09-26T06:42:17.826Z,9.60
2018-09-26T06:42:51.642Z,9.70
2018-09-26T06:43:25.499Z,9.70
2018-09-26T06:43:59.392Z,9.70
2018-09-26T06:44:33.288Z,9.70
2018-09-26T06:45:08.721Z,9.70
2018-09-26T06:45:43.274Z,9.70
2018-09-26T06:46:17.171Z,9.70
2018-09-26T06:46:50.974Z,9.80
2018-09-26T06:47:25.083Z,9.80
2018-09-26T06:47:58.867Z,9.80
2018-09-26T06:48:32.562Z,9.80
2018-09-26T06:49:06.518Z,9.90
2018-09-26T06:49:40.216Z,9.90
2018-09-26T06:50:14.102Z,9.90
2018-09-26T06:50:48.214Z,9.90
2018-09-26T06:51:22.070Z,9.90
2018-09-26T06:51:56.225Z,10.00
2018-09-26T06:52:30.066Z,10.00
2018-09-26T06:53:04.285Z,10.00
2018-09-26T06:53:38.164Z,10.00
2018-09-26T06:54:12.102Z,10.00
2018-09-26T06:54:46.096Z,10.10
2018-09-26T06:55:20.498Z,10.10
2018-09-26T06:55:54.225Z,10.10
2018-09-26T06:56:28.149Z,10.10
2018-09-26T06:57:02.080Z,10.20
2018-09-26T06:57:35.901Z,10.20
2018-09-26T06:58:09.666Z,10.20
2018-09-26T06:58:43.508Z,10.20
2018-09-26T06:59:17.979Z,10.30
2018-09-26T06:59:55.538Z,10.30
2018-09-26T07:00:29.445Z,10.30
2018-09-26T07:01:03.834Z,10.30
2018-09-26T07:01:40.716Z,10.30
2018-09-26T07:02:16.650Z,10.30
2018-09-26T07:02:53.695Z,10.40
2018-09-26T07:03:27.876Z,10.40
2018-09-26T07:04:01.884Z,10.40
2018-09-26T07:04:35.652Z,10.50
2018-09-26T07:05:09.588Z,10.50
2018-09-26T07:05:43.649Z,10.50
2018-09-26T07:06:17.602Z,10.50
2018-09-26T07:06:51.820Z,10.50
2018-09-26T07:07:25.835Z,10.60
2018-09-26T07:07:59.565Z,10.60
2018-09-26T07:08:33.618Z,10.60
2018-09-26T07:09:08.417Z,10.70
2018-09-26T07:09:42.145Z,10.70
2018-09-26T07:10:16.102Z,10.70
2018-09-26T07:10:50.378Z,10.70
2018-09-26T07:11:24.618Z,10.80
2018-09-26T07:11:58.481Z,10.70
2018-09-26T07:12:32.316Z,10.70
2018-09-26T07:13:06.354Z,10.80
2018-09-26T07:13:40.500Z,10.80
2018-09-26T07:14:14.268Z,10.80
2018-09-26T07:14:48.317Z,10.80
2018-09-26T07:15:22.135Z,10.90
2018-09-26T07:15:56.444Z,10.90
2018-09-26T07:16:30.335Z,10.90
2018-09-26T07:17:04.341Z,10.90
2018-09-26T07:17:38.154Z,10.90
2018-09-26T07:18:12.096Z,11.00
2018-09-26T07:18:46.950Z,11.00
2018-09-26T07:19:21.906Z,11.00
2018-09-26T07:19:56.696Z,11.10
2018-09-26T07:21:12.535Z,11.10
2018-09-26T07:21:46.652Z,11.10
2018-09-26T07:22:20.822Z,11.10
2018-09-26T07:22:55.030Z,11.20
2018-09-26T07:23:29.355Z,11.20
2018-09-26T07:24:03.369Z,11.30
2018-09-26T07:24:37.260Z,11.30
2018-09-26T07:25:12.675Z,11.30
2018-09-26T07:25:46.499Z,11.40
2018-09-26T07:26:20.820Z,11.40
2018-09-26T07:26:55.052Z,11.40
2018-09-26T07:27:28.915Z,11.40
2018-09-26T07:28:02.615Z,11.40
2018-09-26T07:28:36.573Z,11.40
2018-09-26T07:29:10.527Z,11.40
2018-09-26T07:29:45.490Z,11.50
2018-09-26T07:30:19.968Z,11.50
2018-09-26T07:30:53.906Z,11.60
2018-09-26T07:31:27.969Z,11.60
2018-09-26T07:32:01.811Z,11.70
2018-09-26T07:32:35.826Z,11.70
2018-09-26T07:33:09.777Z,11.80
2018-09-26T07:33:43.829Z,11.80
2018-09-26T07:34:21.816Z,11.70